Automated Weather Station

Lita, Tayabas, Quezon


Readings

as of August 06, 2016 01:00 AM
Wind Speed
1.4 mm
Rainfall Amount
0 mm
Rainfall Intensity
0 mm
Air Temperature
mm
Wind Direction
293 mm
Air Humidity
88.4 mm

Data Source: PREDICT (Advanced Science and Technology Institute)

12 HOUR DATA

PREVIOUS DATA

From
To
DateTime Wind Speed Rain Amount Rain Intensity Air Temperature Air Pressure Wind Direction Air Humidity
October 28, 2013 03:00 PM 7.9 0 mm 0 27.8 993.75 17 60.7
October 28, 2013 02:45 PM 9 0 mm 0 28.4 993.75 9 58.7
October 28, 2013 02:30 PM 8.2 0 mm 0 28.8 993.62 4 57.5
October 28, 2013 02:15 PM 8.2 0 mm 0 29.1 993.75 12 56.2
October 28, 2013 02:00 PM 8.6 0 mm 0 29.3 993.88 10 52.2
October 28, 2013 01:45 PM 7.4 0 mm 0 29.4 994.02 16 55
October 28, 2013 01:30 PM 7.6 0 mm 0 28.9 994.15 31 59.5
October 28, 2013 01:15 PM 7.7 0 mm 0 29.1 994.28 24 59.5
October 28, 2013 01:00 PM 9.6 0 mm 0 29 994.42 18 56.5
October 28, 2013 12:45 PM 6.4 0 mm 0 29.6 994.55 18 57
October 28, 2013 12:30 PM 8.4 0 mm 0 29.3 994.82 18 58.6
October 28, 2013 12:15 PM 7.5 0 mm 0 29.4 995.08 34 58.5
October 28, 2013 12:00 PM 7.5 0 mm 0 29.8 995.22 25 57.4
October 28, 2013 11:45 AM 8.5 0 mm 0 29.2 995.62 13 60.9
October 28, 2013 11:30 AM 8.6 0 mm 0 28.7 995.62 15 60.6
October 28, 2013 11:15 AM 8.7 0 mm 0 28.8 996.02 20 59.1
October 28, 2013 11:00 AM 6.3 0 mm 0 29.3 996.15 24 59.3
October 28, 2013 10:45 AM 9.1 0 mm 0 29.1 996.28 18 59.5
October 28, 2013 10:30 AM 10 0 mm 0 28.8 996.42 17 59.4
October 28, 2013 10:15 AM 7.6 0 mm 0 29.3 996.82 22 57.9
October 28, 2013 10:00 AM 9 0 mm 0 28.6 996.82 19 61
October 28, 2013 09:45 AM 9.1 0 mm 0 28.8 997.08 34 59.7
October 28, 2013 09:30 AM 8.1 0 mm 0 28 997.08 27 59.7
October 28, 2013 09:15 AM 7.9 0 mm 0 28.4 997.08 19 61.7
October 28, 2013 09:00 AM 8.8 0 mm 0 28 997.22 16 65.2
October 28, 2013 08:45 AM 7.1 0 mm 0 28.1 997.08 17 65.6
October 28, 2013 08:30 AM 8 0 mm 0 27.8 996.95 13 64.1
October 28, 2013 08:15 AM 6.4 0 mm 0 28 996.82 23 67.1
October 28, 2013 08:00 AM 4.8 0 mm 0 27.2 996.68 6 70.2
October 28, 2013 07:45 AM 4.1 0.09 mm 0 26 996.55 1 75.6